sensor_id;sensor_type;location;lat;lon;timestamp;temperature;humidity
20438;DHT22;65664;50.380;8.812;2023-07-13T06:18:31;22.70;1.00
20438;DHT22;65664;50.380;8.812;2023-07-13T06:20:58;22.80;1.00
20438;DHT22;65664;50.380;8.812;2023-07-13T06:23:25;23.00;1.00
20438;DHT22;65664;50.380;8.812;2023-07-13T06:25:52;23.20;1.00
20438;DHT22;65664;50.380;8.812;2023-07-13T06:28:19;23.40;1.00
20438;DHT22;65664;50.380;8.812;2023-07-13T06:30:46;23.50;1.00
20438;DHT22;65664;50.380;8.812;2023-07-13T06:33:12;23.70;1.00
20438;DHT22;65664;50.380;8.812;2023-07-13T06:48:03;23.60;1.00
20438;DHT22;65664;50.380;8.812;2023-07-13T06:50:30;23.60;1.00
20438;DHT22;65664;50.380;8.812;2023-07-13T06:52:57;23.70;1.00
20438;DHT22;65664;50.380;8.812;2023-07-13T06:55:25;23.70;1.00
20438;DHT22;65664;50.380;8.812;2023-07-13T06:57:52;23.70;1.00
20438;DHT22;65664;50.380;8.812;2023-07-13T07:00:19;23.80;1.00
20438;DHT22;65664;50.380;8.812;2023-07-13T07:02:46;24.00;1.00
20438;DHT22;65664;50.380;8.812;2023-07-13T07:05:14;24.10;1.00
20438;DHT22;65664;50.380;8.812;2023-07-13T07:07:41;24.20;1.00
20438;DHT22;65664;50.380;8.812;2023-07-13T07:10:08;24.20;1.00
20438;DHT22;65664;50.380;8.812;2023-07-13T07:12:37;24.40;1.00
20438;DHT22;65664;50.380;8.812;2023-07-13T07:15:04;24.50;1.00
20438;DHT22;65664;50.380;8.812;2023-07-13T07:17:31;24.60;1.00
20438;DHT22;65664;50.380;8.812;2023-07-13T07:19:58;24.80;1.00
20438;DHT22;65664;50.380;8.812;2023-07-13T07:22:27;25.00;1.00
20438;DHT22;65664;50.380;8.812;2023-07-13T07:24:54;24.80;1.00
20438;DHT22;65664;50.380;8.812;2023-07-13T07:27:22;24.70;1.00
20438;DHT22;65664;50.380;8.812;2023-07-13T07:29:49;24.80;1.00
20438;DHT22;65664;50.380;8.812;2023-07-13T07:32:16;25.00;1.00
20438;DHT22;65664;50.380;8.812;2023-07-13T07:34:43;26.00;1.00
20438;DHT22;65664;50.380;8.812;2023-07-13T07:37:12;25.60;1.00
20438;DHT22;65664;50.380;8.812;2023-07-13T07:39:43;25.20;1.00
20438;DHT22;65664;50.380;8.812;2023-07-13T07:42:10;25.00;1.00
20438;DHT22;65664;50.380;8.812;2023-07-13T07:44:39;25.10;1.00
20438;DHT22;65664;50.380;8.812;2023-07-13T07:47:06;25.10;1.00
20438;DHT22;65664;50.380;8.812;2023-07-13T07:49:33;24.90;1.00
20438;DHT22;65664;50.380;8.812;2023-07-13T07:52:00;25.00;1.00
20438;DHT22;65664;50.380;8.812;2023-07-13T07:54:27;25.00;1.00
20438;DHT22;65664;50.380;8.812;2023-07-13T07:56:55;25.10;1.00
20438;DHT22;65664;50.380;8.812;2023-07-13T07:59:22;25.00;1.00
20438;DHT22;65664;50.380;8.812;2023-07-13T08:01:49;25.10;1.00
20438;DHT22;65664;50.380;8.812;2023-07-13T08:04:16;25.00;1.00
20438;DHT22;65664;50.380;8.812;2023-07-13T08:06:43;25.10;1.00
20438;DHT22;65664;50.380;8.812;2023-07-13T08:09:10;24.90;1.00
20438;DHT22;65664;50.380;8.812;2023-07-13T08:11:37;24.90;1.00
20438;DHT22;65664;50.380;8.812;2023-07-13T08:14:05;25.00;1.00
20438;DHT22;65664;50.380;8.812;2023-07-13T08:16:32;25.00;1.00
20438;DHT22;65664;50.380;8.812;2023-07-13T08:19:00;25.20;1.00
